Time;durP1;ratioP1;P1;durP2;ratioP2;P2;SDS_P1;SDS_P2;PMS_P1;PMS_P2;Temp;Humidity;BMP_temperature;BMP_pressure;BME280_temperature;BME280_humidity;BME280_pressure;Samples;Min_cycle;Max_cycle;Signal;HPM_P1;HPM_P2
2022/10/18 00:01:53;;;;;;;23.38;20.85;;;16.40;91.20;;;;;;5026201;28;20029;-86
2022/10/18 00:04:19;;;;;;;22.38;20.05;;;16.40;91.20;;;;;;5029765;28;20021;-83
2022/10/18 00:06:45;;;;;;;22.25;19.90;;;16.40;91.20;;;;;;5040254;28;20061;-87
2022/10/18 00:09:11;;;;;;;22.08;19.83;;;16.40;91.20;;;;;;5042881;28;20112;-84
2022/10/18 00:11:37;;;;;;;23.27;20.83;;;16.30;91.30;;;;;;5028232;28;20094;-84
2022/10/18 00:14:03;;;;;;;22.10;19.95;;;16.30;91.30;;;;;;5031685;28;20026;-84
2022/10/18 00:16:28;;;;;;;24.23;21.48;;;16.40;91.30;;;;;;5028346;28;20401;-84
2022/10/18 00:18:54;;;;;;;24.83;22.33;;;16.30;91.20;;;;;;5021634;28;20040;-85
2022/10/18 00:21:22;;;;;;;24.17;21.67;;;16.40;91.10;;;;;;5039922;28;20049;-82
2022/10/18 00:23:49;;;;;;;26.00;22.58;;;16.40;91.10;;;;;;5030777;28;20041;-83
2022/10/18 00:26:20;;;;;;;22.75;20.40;;;16.40;91.20;;;;;;5030434;28;20057;-83
2022/10/18 00:28:53;;;;;;;23.50;21.10;;;16.30;91.10;;;;;;5029376;28;20119;-83
2022/10/18 00:31:23;;;;;;;23.98;21.35;;;16.30;91.20;;;;;;5028355;28;20045;-83
2022/10/18 00:33:52;;;;;;;23.95;21.48;;;16.30;91.30;;;;;;5028205;28;20034;-83
2022/10/18 00:36:18;;;;;;;25.55;22.77;;;16.30;91.30;;;;;;5028139;28;20178;-84
2022/10/18 00:38:44;;;;;;;26.02;22.38;;;16.30;91.30;;;;;;5023547;28;20083;-83
2022/10/18 00:41:11;;;;;;;25.17;21.70;;;16.30;91.20;;;;;;5029664;28;20077;-84
2022/10/18 00:43:56;;;;;;;24.80;22.13;;;16.30;91.10;;;;;;5032137;28;20045;-83
2022/10/18 00:46:22;;;;;;;26.45;21.35;;;16.40;91.10;;;;;;5029336;28;20100;-83
2022/10/18 00:48:49;;;;;;;24.83;21.95;;;16.30;91.10;;;;;;5027484;28;20033;-83
2022/10/18 00:51:17;;;;;;;23.65;20.92;;;16.40;91.10;;;;;;5035048;28;20079;-83
2022/10/18 00:53:42;;;;;;;23.08;20.67;;;16.30;91.10;;;;;;5030610;28;20029;-83
2022/10/18 00:56:08;;;;;;;26.10;23.48;;;16.30;91.20;;;;;;5036020;28;20129;-86
2022/10/18 00:58:34;;;;;;;22.20;19.90;;;16.30;91.20;;;;;;5037739;28;20052;-83
2022/10/18 01:01:00;;;;;;;22.23;20.02;;;16.20;91.30;;;;;;5046355;28;20032;-84
2022/10/18 01:03:25;;;;;;;22.63;20.25;;;16.20;91.30;;;;;;5039434;28;20029;-84
2022/10/18 01:05:51;;;;;;;22.42;20.13;;;16.20;91.30;;;;;;5029208;28;20048;-83
2022/10/18 01:08:35;;;;;;;23.88;21.58;;;16.20;91.40;;;;;;5027764;28;20099;-83
2022/10/18 01:11:19;;;;;;;26.27;20.90;;;16.20;91.40;;;;;;5027706;28;20465;-83
2022/10/18 01:13:57;;;;;;;25.05;21.90;;;16.20;91.40;;;;;;5019885;28;20854;-83
2022/10/18 01:16:22;;;;;;;27.27;24.38;;;16.20;91.30;;;;;;5025883;28;20045;-83
2022/10/18 01:19:09;;;;;;;23.83;21.58;;;16.20;91.40;;;;;;5022957;28;20045;-83
2022/10/18 01:21:49;;;;;;;23.30;20.90;;;16.10;91.30;;;;;;5021522;28;20045;-85
2022/10/18 01:24:27;;;;;;;21.10;18.88;;;16.10;91.40;;;;;;5023335;28;20449;-83
2022/10/18 01:27:51;;;;;;;23.73;21.27;;;16.10;91.50;;;;;;5028226;28;20061;-83
2022/10/18 01:30:26;;;;;;;27.98;25.17;;;16.10;91.40;;;;;;4941617;28;20066;-86
2022/10/18 01:32:57;;;;;;;27.10;24.35;;;16.10;91.40;;;;;;5038590;28;20021;-86
2022/10/18 01:35:30;;;;;;;27.67;24.90;;;16.10;91.60;;;;;;5032073;28;20080;-81
2022/10/18 01:38:00;;;;;;;30.15;27.05;;;16.10;91.60;;;;;;5030393;28;20045;-88
2022/10/18 01:40:28;;;;;;;26.75;22.20;;;16.10;91.60;;;;;;5026662;28;20352;-82
2022/10/18 01:42:58;;;;;;;28.13;25.27;;;16.10;91.60;;;;;;5040007;28;20068;-87
2022/10/18 01:45:25;;;;;;;27.92;24.92;;;16.10;91.60;;;;;;5053032;28;20065;-87
2022/10/18 01:47:52;;;;;;;25.45;22.85;;;16.20;91.40;;;;;;5048666;28;20018;-88
2022/10/18 01:50:32;;;;;;;26.48;23.67;;;16.10;91.50;;;;;;5039093;28;20410;-82
2022/10/18 01:52:58;;;;;;;25.77;23.10;;;16.10;91.60;;;;;;5039646;28;20477;-84
2022/10/18 01:55:41;;;;;;;27.77;24.95;;;16.10;91.50;;;;;;5034411;28;20044;-82
2022/10/18 01:58:20;;;;;;;27.35;24.45;;;16.10;91.50;;;;;;5032227;28;20033;-82
2022/10/18 02:00:49;;;;;;;29.75;26.67;;;16.10;91.50;;;;;;5024787;28;20037;-83
2022/10/18 02:03:23;;;;;;;29.02;25.92;;;16.10;91.50;;;;;;5020216;28;20477;-83
2022/10/18 02:06:10;;;;;;;29.63;26.42;;;16.10;91.40;;;;;;5025955;28;20132;-83
2022/10/18 02:09:08;;;;;;;26.65;23.80;;;16.10;91.40;;;;;;5021870;28;20049;-83
2022/10/18 02:11:35;;;;;;;32.70;27.15;;;16.10;91.30;;;;;;5024616;28;20041;-82
2022/10/18 02:14:11;;;;;;;29.60;26.40;;;16.10;91.30;;;;;;5025036;28;20026;-82
2022/10/18 02:16:51;;;;;;;29.45;26.38;;;16.10;91.30;;;;;;5042899;28;20120;-83
2022/10/18 02:19:26;;;;;;;28.40;25.42;;;16.10;91.20;;;;;;5017579;28;20060;-84
2022/10/18 02:21:53;;;;;;;29.45;26.13;;;16.10;91.30;;;;;;5028804;28;20482;-84
2022/10/18 02:24:22;;;;;;;27.02;24.10;;;16.10;91.30;;;;;;5021245;28;20097;-83
2022/10/18 02:26:48;;;;;;;28.98;25.92;;;16.10;91.20;;;;;;5023977;28;20570;-85
2022/10/18 02:29:14;;;;;;;27.55;24.77;;;16.10;91.10;;;;;;5025628;28;20128;-83
2022/10/18 02:31:45;;;;;;;29.50;26.27;;;16.10;91.10;;;;;;5026162;28;20133;-83
2022/10/18 02:34:22;;;;;;;28.17;25.33;;;16.10;91.10;;;;;;5024828;28;20474;-82
2022/10/18 02:37:00;;;;;;;24.25;21.73;;;16.10;91.10;;;;;;5035815;28;20045;-82
2022/10/18 02:39:32;;;;;;;26.15;23.45;;;16.10;91.10;;;;;;5026648;28;20121;-85
2022/10/18 02:41:58;;;;;;;24.00;20.90;;;16.10;91.10;;;;;;5026563;28;20776;-85
2022/10/18 02:44:24;;;;;;;24.60;22.10;;;16.10;91.10;;;;;;5025342;28;20038;-86
2022/10/18 02:46:50;;;;;;;26.65;23.63;;;16.10;91.10;;;;;;5026312;28;20099;-83
2022/10/18 02:49:16;;;;;;;24.90;22.25;;;16.10;91.20;;;;;;5029370;28;20041;-84
2022/10/18 02:51:42;;;;;;;26.45;23.50;;;16.10;91.10;;;;;;5023937;28;20239;-83
2022/10/18 02:54:08;;;;;;;27.98;22.70;;;16.10;90.90;;;;;;5024044;28;20522;-82
2022/10/18 02:56:34;;;;;;;25.45;22.85;;;16.10;90.80;;;;;;5016873;28;20042;-82
2022/10/18 02:59:00;;;;;;;25.77;22.30;;;16.10;90.80;;;;;;5035024;28;20030;-82
2022/10/18 03:01:26;;;;;;;25.65;21.35;;;16.10;90.80;;;;;;5021224;28;20524;-84
2022/10/18 03:03:52;;;;;;;25.10;22.25;;;16.10;90.80;;;;;;5035506;28;20112;-82
2022/10/18 03:06:18;;;;;;;21.83;19.50;;;16.10;90.80;;;;;;5025496;28;20088;-82
2022/10/18 03:08:44;;;;;;;21.35;19.17;;;16.10;90.80;;;;;;5022385;28;20737;-82
2022/10/18 03:11:09;;;;;;;24.38;20.38;;;16.10;90.80;;;;;;5026320;28;20029;-85
2022/10/18 03:13:35;;;;;;;22.40;20.08;;;16.10;90.80;;;;;;5031137;28;20574;-83
2022/10/18 03:16:01;;;;;;;23.65;21.02;;;16.10;90.80;;;;;;5021317;28;20492;-85
2022/10/18 03:18:26;;;;;;;23.23;20.60;;;16.10;90.90;;;;;;5022091;28;20084;-83
2022/10/18 03:20:52;;;;;;;26.60;21.40;;;16.10;90.90;;;;;;5025210;28;20036;-85
2022/10/18 03:23:18;;;;;;;22.45;20.05;;;16.10;90.70;;;;;;5022045;28;20936;-88
2022/10/18 03:25:44;;;;;;;23.13;20.65;;;16.10;90.70;;;;;;5023058;28;20245;-84
2022/10/18 03:28:09;;;;;;;22.48;20.08;;;16.10;90.70;;;;;;5024536;28;20132;-86
2022/10/18 03:30:35;;;;;;;21.98;19.77;;;16.10;90.70;;;;;;5029625;28;20036;-84
2022/10/18 03:33:01;;;;;;;20.20;18.20;;;16.10;90.70;;;;;;5030009;28;20532;-85
2022/10/18 03:35:26;;;;;;;24.25;21.30;;;16.00;90.70;;;;;;5028138;28;20600;-85
2022/10/18 03:37:52;;;;;;;23.55;19.98;;;16.10;90.70;;;;;;5028926;28;20033;-84
2022/10/18 03:40:18;;;;;;;22.67;20.27;;;16.00;90.70;;;;;;5028972;28;20030;-85
2022/10/18 03:42:43;;;;;;;21.55;19.48;;;16.00;90.60;;;;;;5033607;28;20092;-83
2022/10/18 03:45:09;;;;;;;27.25;23.00;;;16.00;90.60;;;;;;5034704;28;20116;-85
2022/10/18 03:47:34;;;;;;;27.63;22.80;;;16.00;90.70;;;;;;5040177;28;20485;-83
2022/10/18 03:50:00;;;;;;;25.00;21.58;;;15.90;90.50;;;;;;5032538;28;20034;-85
2022/10/18 03:52:26;;;;;;;26.90;24.00;;;15.90;90.50;;;;;;5024997;28;20104;-87
2022/10/18 03:54:51;;;;;;;25.52;22.65;;;15.90;90.40;;;;;;5023510;28;20061;-84
2022/10/18 03:57:17;;;;;;;23.67;21.17;;;15.80;90.40;;;;;;5026822;28;20037;-83
2022/10/18 03:59:43;;;;;;;24.75;22.15;;;15.80;90.40;;;;;;5026600;28;20033;-88
2022/10/18 04:02:08;;;;;;;25.13;21.25;;;15.70;90.40;;;;;;5026561;28;20041;-82
2022/10/18 04:04:34;;;;;;;23.33;20.90;;;15.70;90.50;;;;;;5022499;28;20025;-82
2022/10/18 04:07:00;;;;;;;24.23;21.67;;;15.60;90.60;;;;;;5022535;28;20054;-81
2022/10/18 04:09:25;;;;;;;27.02;23.25;;;15.60;90.70;;;;;;5025363;28;20053;-82
2022/10/18 04:11:51;;;;;;;24.83;22.23;;;15.50;90.70;;;;;;5031009;28;20037;-83
2022/10/18 04:14:20;;;;;;;27.70;24.75;;;15.40;90.50;;;;;;5030500;28;20053;-82
2022/10/18 04:16:45;;;;;;;25.83;23.13;;;15.40;90.60;;;;;;5029698;28;20033;-82
2022/10/18 04:19:11;;;;;;;26.70;24.05;;;15.30;90.70;;;;;;5027825;28;20395;-85
2022/10/18 04:21:37;;;;;;;26.38;21.92;;;15.30;90.70;;;;;;5042314;28;20033;-81
2022/10/18 04:24:03;;;;;;;26.90;22.45;;;15.20;90.70;;;;;;5031238;28;20124;-82
2022/10/18 04:26:28;;;;;;;23.88;21.45;;;15.20;90.70;;;;;;5020712;28;20103;-81
2022/10/18 04:28:54;;;;;;;26.17;23.60;;;15.10;90.70;;;;;;5022323;28;20034;-82
2022/10/18 04:31:20;;;;;;;25.98;23.13;;;15.10;90.70;;;;;;5020824;28;20057;-82
2022/10/18 04:33:45;;;;;;;24.13;21.58;;;15.00;90.60;;;;;;5032405;28;20561;-84
2022/10/18 04:36:11;;;;;;;25.92;22.55;;;14.90;90.70;;;;;;5022896;28;20041;-84
2022/10/18 04:38:37;;;;;;;24.33;21.83;;;14.90;90.70;;;;;;5022568;28;20079;-83
2022/10/18 04:41:02;;;;;;;23.98;21.42;;;14.80;90.90;;;;;;5022367;28;20441;-83
2022/10/18 04:43:28;;;;;;;25.63;22.90;;;14.80;90.90;;;;;;5021259;28;20456;-82
2022/10/18 04:45:54;;;;;;;22.50;20.20;;;14.80;90.90;;;;;;5020421;28;20080;-83
2022/10/18 04:48:19;;;;;;;24.48;20.83;;;14.70;91.00;;;;;;5025815;28;20055;-82
2022/10/18 04:50:49;;;;;;;22.48;20.20;;;14.70;91.00;;;;;;5019248;28;20045;-83
2022/10/18 04:53:16;;;;;;;24.23;21.17;;;14.60;91.00;;;;;;5027016;28;20042;-82
2022/10/18 04:55:48;;;;;;;25.55;22.75;;;14.60;91.10;;;;;;5025780;28;20029;-82
2022/10/18 04:58:14;;;;;;;23.42;20.92;;;14.50;91.20;;;;;;5024108;28;20030;-82
2022/10/18 05:00:41;;;;;;;27.05;23.42;;;14.60;91.20;;;;;;5020751;28;20712;-83
2022/10/18 05:03:07;;;;;;;24.67;22.08;;;14.50;91.20;;;;;;5024609;28;20061;-81
2022/10/18 05:05:32;;;;;;;24.27;21.77;;;14.50;91.20;;;;;;5021442;28;20038;-83
2022/10/18 05:07:58;;;;;;;24.73;22.27;;;14.40;91.20;;;;;;5019742;28;20030;-82
2022/10/18 05:10:23;;;;;;;24.52;21.98;;;14.40;91.30;;;;;;5020623;28;20060;-82
2022/10/18 05:12:49;;;;;;;24.67;22.02;;;14.30;91.30;;;;;;5018164;28;20430;-83
2022/10/18 05:15:15;;;;;;;23.40;21.05;;;14.30;91.30;;;;;;5018901;28;20046;-83
2022/10/18 05:17:40;;;;;;;26.00;23.20;;;14.30;91.30;;;;;;5027422;28;20103;-84
2022/10/18 05:20:06;;;;;;;23.42;21.00;;;14.20;91.30;;;;;;5015890;28;20636;-84
2022/10/18 05:22:32;;;;;;;25.80;21.23;;;14.20;91.40;;;;;;5018381;28;20040;-82
2022/10/18 05:24:57;;;;;;;26.52;23.65;;;14.10;91.40;;;;;;5021825;28;20033;-83
2022/10/18 05:27:23;;;;;;;24.63;22.13;;;14.10;91.30;;;;;;5016500;28;20084;-82
2022/10/18 05:29:49;;;;;;;24.30;21.73;;;14.10;91.40;;;;;;5029127;28;20038;-81
2022/10/18 05:32:14;;;;;;;23.70;21.20;;;14.10;91.40;;;;;;5019535;28;20081;-83
2022/10/18 05:34:40;;;;;;;26.48;23.17;;;14.10;91.50;;;;;;5027013;28;20057;-83
2022/10/18 05:37:06;;;;;;;27.20;23.02;;;14.10;91.50;;;;;;5033561;28;20124;-84
2022/10/18 05:39:31;;;;;;;26.67;23.88;;;14.00;91.40;;;;;;5021994;28;20044;-82
2022/10/18 05:41:58;;;;;;;25.58;22.83;;;13.90;91.40;;;;;;5021204;28;20437;-84
2022/10/18 05:44:24;;;;;;;26.60;21.80;;;13.90;91.50;;;;;;5031056;28;20025;-87
2022/10/18 05:46:49;;;;;;;24.20;21.70;;;13.90;91.40;;;;;;5047512;28;20186;-87
2022/10/18 05:49:15;;;;;;;27.35;22.92;;;13.80;91.40;;;;;;5029721;28;20117;-84
2022/10/18 05:51:41;;;;;;;24.58;21.98;;;13.80;91.40;;;;;;5030585;28;20627;-84
2022/10/18 05:54:08;;;;;;;25.17;21.90;;;13.80;91.40;;;;;;5024194;28;20092;-83
2022/10/18 05:56:33;;;;;;;26.85;22.77;;;13.80;91.30;;;;;;5020890;28;20045;-83
2022/10/18 05:58:59;;;;;;;25.80;23.05;;;13.70;91.30;;;;;;5024060;28;20029;-79
2022/10/18 06:01:25;;;;;;;26.45;23.65;;;13.70;91.30;;;;;;5025016;28;20067;-78
2022/10/18 06:03:50;;;;;;;30.33;25.20;;;13.70;91.30;;;;;;5022940;28;20396;-78
2022/10/18 06:06:16;;;;;;;30.25;27.08;;;13.70;91.40;;;;;;5018514;28;20045;-79
2022/10/18 06:08:43;;;;;;;28.88;25.70;;;13.60;91.50;;;;;;5028521;28;20041;-78
2022/10/18 06:11:14;;;;;;;27.88;23.92;;;13.70;91.50;;;;;;5031634;28;20203;-80
2022/10/18 06:13:45;;;;;;;23.52;20.85;;;13.70;91.60;;;;;;5026649;28;20042;-79
2022/10/18 06:16:12;;;;;;;20.98;18.77;;;13.60;91.50;;;;;;5022474;28;20365;-79
2022/10/18 06:18:38;;;;;;;22.38;19.98;;;13.60;91.50;;;;;;5022917;28;20038;-78
2022/10/18 06:21:04;;;;;;;23.30;20.90;;;13.60;91.40;;;;;;5020919;28;20466;-80
2022/10/18 06:23:30;;;;;;;21.80;19.38;;;13.60;91.40;;;;;;5022401;28;20041;-76
2022/10/18 06:26:00;;;;;;;24.75;18.92;;;13.60;91.40;;;;;;5021587;28;20085;-77
2022/10/18 06:28:27;;;;;;;20.05;17.90;;;13.50;91.40;;;;;;5021509;28;20441;-82
2022/10/18 06:30:53;;;;;;;21.40;19.30;;;13.50;91.40;;;;;;5024158;28;20168;-79
2022/10/18 06:33:19;;;;;;;22.90;20.48;;;13.50;91.40;;;;;;5014031;28;20041;-78
2022/10/18 06:35:57;;;;;;;23.48;18.58;;;13.40;91.30;;;;;;5021746;28;20029;-79
2022/10/18 06:38:23;;;;;;;20.85;18.63;;;13.40;91.20;;;;;;5023059;28;20052;-79
2022/10/18 06:40:49;;;;;;;25.35;20.85;;;13.40;91.20;;;;;;5017294;28;20057;-78
2022/10/18 06:43:14;;;;;;;22.98;20.55;;;13.40;91.00;;;;;;5024597;28;20413;-78
2022/10/18 06:45:40;;;;;;;21.83;19.30;;;13.40;90.90;;;;;;5018485;28;20048;-80
2022/10/18 06:48:06;;;;;;;22.52;19.58;;;13.40;90.90;;;;;;5019739;28;20052;-79
2022/10/18 06:50:32;;;;;;;28.52;22.88;;;13.40;90.70;;;;;;5024669;28;20362;-79
2022/10/18 06:52:58;;;;;;;23.38;20.17;;;13.40;90.60;;;;;;5025614;28;20522;-78
2022/10/18 06:55:23;;;;;;;26.75;23.30;;;13.40;90.70;;;;;;5016315;28;20545;-79
2022/10/18 06:57:49;;;;;;;25.00;22.40;;;13.40;90.70;;;;;;5038521;28;20102;-79
2022/10/18 07:00:15;;;;;;;26.45;23.63;;;13.40;90.60;;;;;;5025014;28;20036;-80
2022/10/18 07:02:41;;;;;;;34.40;23.83;;;13.50;90.50;;;;;;5019553;28;20064;-78
2022/10/18 07:05:08;;;;;;;31.98;23.40;;;13.50;90.30;;;;;;5026472;28;20038;-80
2022/10/18 07:07:34;;;;;;;30.27;20.77;;;13.50;90.40;;;;;;5034027;28;20026;-80
2022/10/18 07:09:59;;;;;;;31.52;21.50;;;13.60;90.40;;;;;;5047873;28;20116;-79
2022/10/18 07:12:25;;;;;;;27.33;19.30;;;13.60;90.30;;;;;;5030982;28;20368;-79
2022/10/18 07:14:51;;;;;;;29.83;19.73;;;13.60;90.30;;;;;;5024937;28;20118;-78
2022/10/18 07:17:16;;;;;;;22.88;18.42;;;13.60;90.20;;;;;;5021180;28;20497;-79
2022/10/18 07:19:42;;;;;;;21.60;17.00;;;13.70;90.20;;;;;;5021530;28;20030;-79
2022/10/18 07:22:08;;;;;;;21.40;17.08;;;13.80;90.10;;;;;;5027465;28;20049;-79
2022/10/18 07:24:33;;;;;;;22.02;16.95;;;13.90;90.10;;;;;;5031672;28;20532;-79
2022/10/18 07:26:59;;;;;;;19.48;15.40;;;13.90;90.00;;;;;;5022094;28;20041;-79
2022/10/18 07:29:24;;;;;;;15.75;14.05;;;14.00;90.00;;;;;;5016861;28;20487;-78
2022/10/18 07:31:50;;;;;;;21.50;17.02;;;13.90;89.90;;;;;;5023333;28;20137;-78
2022/10/18 07:34:15;;;;;;;28.08;19.27;;;14.00;90.10;;;;;;5026017;28;20037;-80
2022/10/18 07:36:41;;;;;;;19.75;17.60;;;14.00;89.90;;;;;;5022623;28;20381;-79
2022/10/18 07:39:07;;;;;;;18.48;16.48;;;14.10;90.10;;;;;;5026637;28;20044;-78
2022/10/18 07:41:33;;;;;;;16.80;15.20;;;14.10;90.00;;;;;;5020844;28;20074;-79
2022/10/18 07:44:00;;;;;;;16.90;14.90;;;14.20;89.90;;;;;;5026249;28;20111;-78
2022/10/18 07:46:27;;;;;;;17.15;13.93;;;14.20;90.00;;;;;;5028307;28;20044;-81
2022/10/18 07:48:54;;;;;;;18.50;16.55;;;14.30;90.00;;;;;;5029133;28;20458;-78
2022/10/18 07:51:20;;;;;;;19.13;17.05;;;14.30;90.10;;;;;;5028466;28;20389;-78
2022/10/18 07:53:46;;;;;;;16.70;14.27;;;14.30;90.00;;;;;;5022768;28;20319;-78
2022/10/18 07:56:15;;;;;;;19.77;17.67;;;14.40;90.00;;;;;;5024163;28;20107;-80
2022/10/18 07:58:44;;;;;;;19.80;17.58;;;14.50;90.20;;;;;;5021874;28;20469;-79
2022/10/18 08:01:11;;;;;;;20.38;18.27;;;14.60;90.30;;;;;;5030650;28;20034;-78
2022/10/18 08:03:38;;;;;;;19.45;16.65;;;14.70;90.30;;;;;;5027290;28;20034;-78
2022/10/18 08:06:08;;;;;;;24.60;20.33;;;14.70;90.30;;;;;;5026381;28;20114;-79
2022/10/18 08:08:35;;;;;;;25.50;21.90;;;14.90;90.50;;;;;;5019857;28;20041;-78
2022/10/18 08:11:06;;;;;;;26.50;23.80;;;15.00;90.40;;;;;;5017689;28;20124;-79
2022/10/18 08:13:32;;;;;;;37.42;27.58;;;15.10;90.60;;;;;;5027169;28;20257;-80
2022/10/18 08:16:05;;;;;;;36.85;26.40;;;15.30;90.60;;;;;;5026024;28;20033;-81
2022/10/18 08:18:31;;;;;;;30.43;25.27;;;15.40;90.40;;;;;;5025591;28;21423;-79
2022/10/18 08:21:02;;;;;;;30.15;23.20;;;15.50;90.10;;;;;;5018380;28;20120;-80
2022/10/18 08:23:27;;;;;;;34.47;22.88;;;15.70;90.10;;;;;;5016654;28;20034;-78
2022/10/18 08:25:53;;;;;;;33.30;25.48;;;15.90;89.90;;;;;;5024183;28;20048;-79
2022/10/18 08:28:19;;;;;;;27.27;22.45;;;16.10;89.70;;;;;;5021170;28;20570;-79
2022/10/18 08:30:44;;;;;;;31.23;22.40;;;16.10;89.50;;;;;;5034539;28;20044;-79
2022/10/18 08:33:10;;;;;;;31.63;21.33;;;16.30;88.60;;;;;;5034446;28;20044;-78
2022/10/18 08:35:36;;;;;;;33.80;21.55;;;16.40;88.30;;;;;;5034835;28;20026;-80
2022/10/18 08:38:02;;;;;;;26.80;18.45;;;16.60;87.90;;;;;;5028697;28;20498;-80
2022/10/18 08:40:27;;;;;;;26.42;17.95;;;16.80;86.60;;;;;;5027215;28;20048;-80
2022/10/18 08:43:28;;;;;;;26.90;18.05;;;16.70;86.10;;;;;;5025353;28;20017;-79
2022/10/18 08:45:54;;;;;;;30.95;19.02;;;16.80;85.80;;;;;;5024583;28;20899;-79
2022/10/18 08:48:32;;;;;;;24.58;17.30;;;17.10;85.90;;;;;;5024323;28;20697;-79
2022/10/18 08:51:00;;;;;;;27.20;17.48;;;17.10;84.50;;;;;;5018118;28;20029;-81
2022/10/18 08:53:32;;;;;;;26.35;16.05;;;17.10;84.60;;;;;;5026306;28;20562;-79
2022/10/18 08:56:09;;;;;;;32.25;17.27;;;17.20;84.60;;;;;;5027550;28;20038;-79
2022/10/18 08:58:45;;;;;;;29.60;16.08;;;17.30;83.30;;;;;;5023949;28;20091;-78
2022/10/18 09:01:25;;;;;;;27.25;14.43;;;17.40;83.80;;;;;;5021874;28;20129;-80
2022/10/18 09:04:00;;;;;;;26.60;15.23;;;17.40;83.50;;;;;;5019673;28;20072;-80
2022/10/18 09:06:37;;;;;;;28.40;15.80;;;17.30;83.50;;;;;;5025110;28;20061;-80
2022/10/18 09:09:15;;;;;;;29.17;14.63;;;17.50;83.20;;;;;;5023774;28;20079;-79
2022/10/18 09:12:16;;;;;;;22.55;14.35;;;17.60;82.50;;;;;;5037691;28;20075;-80
2022/10/18 09:15:09;;;;;;;28.80;15.15;;;17.70;82.00;;;;;;5001252;28;20505;-80
2022/10/18 09:17:35;;;;;;;23.33;13.10;;;17.90;81.40;;;;;;5025490;28;20038;-80
2022/10/18 09:20:12;;;;;;;22.52;12.57;;;17.90;81.00;;;;;;5030524;28;20061;-80
2022/10/18 09:23:17;;;;;;;27.63;12.68;;;18.00;80.80;;;;;;5025171;28;20041;-79
2022/10/18 09:25:52;;;;;;;26.90;12.00;;;18.10;80.40;;;;;;5036906;28;20124;-79
2022/10/18 09:29:02;;;;;;;30.48;11.90;;;18.30;81.20;;;;;;5029057;28;20076;-80
2022/10/18 09:31:36;;;;;;;28.42;12.40;;;18.50;79.10;;;;;;5024475;28;20068;-79
2022/10/18 09:34:34;;;;;;;25.45;11.43;;;18.30;79.40;;;;;;5025393;28;20385;-80
2022/10/18 09:37:00;;;;;;;23.38;11.35;;;18.30;80.20;;;;;;5006677;28;20037;-81
2022/10/18 09:39:34;;;;;;;28.23;11.30;;;18.50;79.40;;;;;;5022667;28;20068;-79
2022/10/18 09:42:06;;;;;;;20.73;9.85;;;18.30;79.10;;;;;;5024801;28;20594;-79
2022/10/18 09:44:52;;;;;;;26.70;11.05;;;18.30;78.50;;;;;;5023302;28;20068;-79
2022/10/18 09:47:25;;;;;;;24.83;9.63;;;18.20;78.70;;;;;;5025670;28;20049;-79
2022/10/18 09:50:01;;;;;;;23.10;8.13;;;18.40;79.30;;;;;;5025146;28;20040;-81
2022/10/18 09:52:43;;;;;;;26.05;9.50;;;18.30;78.50;;;;;;5024698;28;20065;-81
2022/10/18 09:55:19;;;;;;;29.27;10.15;;;18.40;78.60;;;;;;5022296;28;20056;-80
2022/10/18 09:57:59;;;;;;;21.10;10.35;;;18.50;77.60;;;;;;5024757;28;20070;-79
2022/10/18 10:00:28;;;;;;;19.55;8.77;;;18.60;77.40;;;;;;5024697;28;20489;-79
2022/10/18 10:03:01;;;;;;;21.58;9.63;;;18.70;76.80;;;;;;5021961;28;20033;-82
2022/10/18 10:05:28;;;;;;;23.55;9.57;;;18.80;77.70;;;;;;5014961;28;20034;-77
2022/10/18 10:07:58;;;;;;;25.45;10.43;;;19.10;76.50;;;;;;5040226;28;20211;-80
2022/10/18 10:10:29;;;;;;;23.38;10.75;;;19.10;76.40;;;;;;5014008;28;20052;-79
2022/10/18 10:13:16;;;;;;;22.35;10.73;;;19.10;75.20;;;;;;5041516;28;20037;-79
2022/10/18 10:15:52;;;;;;;21.75;9.55;;;18.80;75.60;;;;;;5035691;28;20041;-79
2022/10/18 10:18:27;;;;;;;22.92;9.93;;;19.10;75.80;;;;;;5023041;28;20088;-79
2022/10/18 10:21:14;;;;;;;21.65;10.15;;;18.90;75.30;;;;;;5026174;28;20032;-81
2022/10/18 10:23:52;;;;;;;16.98;8.38;;;19.10;75.70;;;;;;5025646;28;20485;-80
2022/10/18 10:26:29;;;;;;;17.98;7.78;;;19.20;75.10;;;;;;5020514;28;20049;-80
2022/10/18 10:28:55;;;;;;;20.08;7.00;;;19.60;75.60;;;;;;5024875;28;20113;-80
2022/10/18 10:31:23;;;;;;;21.45;6.70;;;19.70;72.90;;;;;;5023672;28;20120;-81
2022/10/18 10:34:12;;;;;;;21.67;6.63;;;19.80;72.70;;;;;;5026387;28;20328;-80
2022/10/18 10:36:50;;;;;;;19.65;5.55;;;20.00;71.10;;;;;;5015740;28;20044;-79
2022/10/18 10:39:18;;;;;;;13.27;4.50;;;20.00;71.10;;;;;;5017984;28;20084;-79
2022/10/18 10:41:58;;;;;;;20.58;5.57;;;19.90;69.60;;;;;;5026237;28;20120;-79
2022/10/18 10:44:28;;;;;;;22.45;6.65;;;19.90;70.70;;;;;;5021336;28;20044;-80
2022/10/18 10:46:54;;;;;;;19.90;5.68;;;20.10;70.50;;;;;;5029260;28;20088;-79
2022/10/18 10:49:26;;;;;;;22.30;6.03;;;20.20;70.20;;;;;;5023217;28;20041;-78
2022/10/18 10:52:00;;;;;;;15.73;5.90;;;20.20;70.10;;;;;;5026608;28;20116;-79
2022/10/18 10:54:28;;;;;;;20.95;6.28;;;20.50;69.80;;;;;;5013574;28;20116;-79
2022/10/18 10:57:01;;;;;;;19.50;5.95;;;20.00;69.90;;;;;;5021806;28;20037;-80
2022/10/18 10:59:49;;;;;;;19.02;5.90;;;20.30;70.30;;;;;;5016741;28;20037;-82
2022/10/18 11:02:19;;;;;;;20.27;6.47;;;20.30;69.10;;;;;;5008454;28;20049;-79
2022/10/18 11:04:46;;;;;;;20.73;6.57;;;20.50;69.70;;;;;;5024590;28;20040;-78
2022/10/18 11:07:30;;;;;;;19.95;6.82;;;20.40;67.70;;;;;;5024610;28;20053;-82
2022/10/18 11:10:05;;;;;;;19.87;6.17;;;20.30;68.30;;;;;;5022656;28;20040;-78
2022/10/18 11:12:34;;;;;;;23.58;5.97;;;20.20;68.20;;;;;;5023235;28;20412;-79
2022/10/18 11:15:10;;;;;;;17.52;5.63;;;20.50;67.50;;;;;;5024144;28;20474;-78
2022/10/18 11:17:55;;;;;;;15.85;5.38;;;20.30;66.70;;;;;;5039384;28;20572;-80
2022/10/18 11:20:39;;;;;;;14.07;4.60;;;20.10;64.50;;;;;;5011955;28;20474;-80
2022/10/18 11:23:15;;;;;;;14.73;4.53;;;20.20;65.60;;;;;;5023007;28;20160;-82
2022/10/18 11:26:12;;;;;;;15.57;5.72;;;20.60;64.40;;;;;;5024553;28;20063;-80
2022/10/18 11:29:02;;;;;;;16.08;5.45;;;20.60;64.10;;;;;;5022458;28;20029;-81
2022/10/18 11:31:47;;;;;;;20.10;4.93;;;20.70;64.50;;;;;;5017961;28;20048;-81
2022/10/18 11:34:18;;;;;;;13.32;5.82;;;20.90;64.20;;;;;;5015367;28;20029;-82
2022/10/18 11:36:57;;;;;;;16.77;4.88;;;20.90;63.30;;;;;;5026145;28;20105;-80
2022/10/18 11:39:48;;;;;;;15.43;5.15;;;21.00;64.20;;;;;;5021952;28;20103;-79
2022/10/18 11:43:07;;;;;;;14.55;5.03;;;21.00;64.90;;;;;;5026627;28;20100;-82
2022/10/18 11:45:50;;;;;;;13.88;5.47;;;21.00;64.50;;;;;;5022472;28;20041;-80
2022/10/18 11:48:49;;;;;;;16.30;5.45;;;20.80;60.70;;;;;;5027783;28;20054;-80
2022/10/18 11:51:40;;;;;;;19.00;6.13;;;21.00;63.00;;;;;;5020632;28;20037;-80
2022/10/18 11:54:39;;;;;;;16.65;6.18;;;20.60;62.20;;;;;;5021965;28;20037;-80
2022/10/18 11:57:16;;;;;;;16.45;5.85;;;20.70;62.60;;;;;;5019931;28;20129;-81
2022/10/18 11:59:45;;;;;;;19.15;5.63;;;20.80;63.00;;;;;;5024103;28;20076;-80
2022/10/18 12:02:50;;;;;;;18.13;5.82;;;20.70;60.70;;;;;;5037389;28;20056;-79
2022/10/18 12:05:16;;;;;;;;;;;20.70;61.30;;;;;;5029216;28;20045;-80
2022/10/18 12:07:55;;;;;;;18.13;4.82;;;20.70;61.30;;;;;;5027253;28;20395;-80
2022/10/18 12:10:23;;;;;;;17.23;5.80;;;20.60;60.00;;;;;;5027241;28;20170;-81
2022/10/18 12:12:52;;;;;;;14.48;4.55;;;20.30;58.90;;;;;;5023882;28;20084;-79
2022/10/18 12:15:23;;;;;;;16.45;6.25;;;20.50;60.80;;;;;;5028879;28;20111;-80
2022/10/18 12:18:06;;;;;;;17.20;7.57;;;20.70;63.10;;;;;;5028997;28;20495;-79
2022/10/18 12:20:36;;;;;;;19.58;9.68;;;21.00;63.90;;;;;;5025457;28;20038;-78
2022/10/18 12:23:12;;;;;;;16.38;8.50;;;21.00;63.20;;;;;;5028613;28;20033;-79
2022/10/18 12:25:44;;;;;;;19.50;7.88;;;21.20;63.30;;;;;;5034241;28;20045;-81
2022/10/18 12:28:28;;;;;;;18.35;7.68;;;21.20;60.10;;;;;;5027296;28;20088;-79
2022/10/18 12:31:12;;;;;;;11.82;5.13;;;21.10;60.90;;;;;;5026228;28;20470;-80
2022/10/18 12:33:42;;;;;;;16.30;6.20;;;21.30;61.10;;;;;;5038995;28;20492;-81
2022/10/18 12:36:39;;;;;;;18.58;6.15;;;21.30;58.20;;;;;;5026270;28;20040;-80
2022/10/18 12:39:27;;;;;;;15.75;6.32;;;21.20;58.90;;;;;;5023508;28;20561;-81
2022/10/18 12:41:55;;;;;;;17.27;7.20;;;21.40;59.30;;;;;;5025943;28;20421;-80
2022/10/18 12:44:31;;;;;;;22.38;8.32;;;21.30;59.90;;;;;;5018141;28;20034;-80
2022/10/18 12:47:03;;;;;;;16.70;7.63;;;21.40;60.50;;;;;;5018671;28;20125;-81
2022/10/18 12:49:37;;;;;;;20.30;7.97;;;21.40;59.70;;;;;;5008861;28;20099;-80